sensor_id;sensor_type;location;lat;lon;timestamp;temperature;humidity
15413;DHT22;7805;49.554;7.632;2023-01-09T00:02:04;9.90;99.90
15413;DHT22;7805;49.554;7.632;2023-01-09T00:04:30;9.90;99.90
15413;DHT22;7805;49.554;7.632;2023-01-09T00:06:55;9.90;99.90
15413;DHT22;7805;49.554;7.632;2023-01-09T00:09:22;10.30;99.90
15413;DHT22;7805;49.554;7.632;2023-01-09T00:11:48;9.90;99.90
15413;DHT22;7805;49.554;7.632;2023-01-09T00:14:17;9.90;99.90
15413;DHT22;7805;49.554;7.632;2023-01-09T00:16:43;10.00;99.90
15413;DHT22;7805;49.554;7.632;2023-01-09T00:19:09;10.00;99.90
15413;DHT22;7805;49.554;7.632;2023-01-09T00:21:35;10.00;99.90
15413;DHT22;7805;49.554;7.632;2023-01-09T00:24:01;10.00;99.90
15413;DHT22;7805;49.554;7.632;2023-01-09T00:26:27;9.90;99.90
15413;DHT22;7805;49.554;7.632;2023-01-09T00:28:52;10.00;99.90
15413;DHT22;7805;49.554;7.632;2023-01-09T00:31:19;10.00;99.90
15413;DHT22;7805;49.554;7.632;2023-01-09T00:33:54;10.00;99.90
15413;DHT22;7805;49.554;7.632;2023-01-09T00:36:20;10.10;99.90
15413;DHT22;7805;49.554;7.632;2023-01-09T00:38:45;10.20;99.90
15413;DHT22;7805;49.554;7.632;2023-01-09T00:41:17;10.20;99.90
15413;DHT22;7805;49.554;7.632;2023-01-09T00:43:50;10.10;99.90
15413;DHT22;7805;49.554;7.632;2023-01-09T00:46:19;10.10;99.90
15413;DHT22;7805;49.554;7.632;2023-01-09T00:48:46;10.00;99.90
15413;DHT22;7805;49.554;7.632;2023-01-09T00:51:13;10.10;99.90
15413;DHT22;7805;49.554;7.632;2023-01-09T00:53:40;10.10;99.90
15413;DHT22;7805;49.554;7.632;2023-01-09T00:56:09;10.00;99.90
15413;DHT22;7805;49.554;7.632;2023-01-09T00:58:35;10.00;99.90
15413;DHT22;7805;49.554;7.632;2023-01-09T01:01:01;10.00;99.90
15413;DHT22;7805;49.554;7.632;2023-01-09T01:03:27;9.90;99.90
15413;DHT22;7805;49.554;7.632;2023-01-09T01:05:53;9.80;99.90
15413;DHT22;7805;49.554;7.632;2023-01-09T01:08:37;9.90;99.90
15413;DHT22;7805;49.554;7.632;2023-01-09T01:11:05;9.90;99.90
15413;DHT22;7805;49.554;7.632;2023-01-09T01:13:31;9.90;99.90
15413;DHT22;7805;49.554;7.632;2023-01-09T01:15:56;10.00;99.90
15413;DHT22;7805;49.554;7.632;2023-01-09T01:18:22;10.00;99.90
15413;DHT22;7805;49.554;7.632;2023-01-09T01:20:47;10.00;99.90
15413;DHT22;7805;49.554;7.632;2023-01-09T01:23:13;10.00;99.90
15413;DHT22;7805;49.554;7.632;2023-01-09T01:25:41;10.00;99.90
15413;DHT22;7805;49.554;7.632;2023-01-09T01:28:08;9.90;99.90
15413;DHT22;7805;49.554;7.632;2023-01-09T01:30:38;9.90;99.90
15413;DHT22;7805;49.554;7.632;2023-01-09T01:33:04;9.90;99.90
15413;DHT22;7805;49.554;7.632;2023-01-09T01:35:30;9.80;99.90
15413;DHT22;7805;49.554;7.632;2023-01-09T01:37:56;9.80;99.90
15413;DHT22;7805;49.554;7.632;2023-01-09T01:40:22;9.80;99.90
15413;DHT22;7805;49.554;7.632;2023-01-09T01:42:49;9.80;99.90
15413;DHT22;7805;49.554;7.632;2023-01-09T01:45:27;9.80;99.90
15413;DHT22;7805;49.554;7.632;2023-01-09T01:48:00;9.70;99.90
15413;DHT22;7805;49.554;7.632;2023-01-09T01:50:36;9.80;99.90
15413;DHT22;7805;49.554;7.632;2023-01-09T01:58:27;9.70;99.90
15413;DHT22;7805;49.554;7.632;2023-01-09T02:00:53;9.70;99.90
15413;DHT22;7805;49.554;7.632;2023-01-09T02:03:22;9.70;99.90
15413;DHT22;7805;49.554;7.632;2023-01-09T02:05:48;9.70;99.90
15413;DHT22;7805;49.554;7.632;2023-01-09T02:08:13;9.70;99.90
15413;DHT22;7805;49.554;7.632;2023-01-09T02:10:40;9.70;99.90
15413;DHT22;7805;49.554;7.632;2023-01-09T02:13:06;9.70;99.90
15413;DHT22;7805;49.554;7.632;2023-01-09T02:15:47;9.70;99.90
15413;DHT22;7805;49.554;7.632;2023-01-09T02:21:03;9.70;99.90
15413;DHT22;7805;49.554;7.632;2023-01-09T02:23:45;9.70;99.90
15413;DHT22;7805;49.554;7.632;2023-01-09T02:40:45;9.70;99.90
15413;DHT22;7805;49.554;7.632;2023-01-09T02:43:12;9.70;99.90
15413;DHT22;7805;49.554;7.632;2023-01-09T02:45:38;9.70;99.90
15413;DHT22;7805;49.554;7.632;2023-01-09T02:48:04;9.70;99.90
15413;DHT22;7805;49.554;7.632;2023-01-09T02:50:46;9.60;99.90
15413;DHT22;7805;49.554;7.632;2023-01-09T02:53:17;9.70;99.90
15413;DHT22;7805;49.554;7.632;2023-01-09T03:04:25;9.70;99.90
15413;DHT22;7805;49.554;7.632;2023-01-09T03:09:27;9.60;99.90
15413;DHT22;7805;49.554;7.632;2023-01-09T03:12:08;9.40;99.90
15413;DHT22;7805;49.554;7.632;2023-01-09T03:14:38;9.50;99.90
15413;DHT22;7805;49.554;7.632;2023-01-09T03:17:08;9.50;99.90
15413;DHT22;7805;49.554;7.632;2023-01-09T03:19:36;9.40;99.90
15413;DHT22;7805;49.554;7.632;2023-01-09T03:22:02;9.40;99.90
15413;DHT22;7805;49.554;7.632;2023-01-09T03:24:28;9.40;99.90
15413;DHT22;7805;49.554;7.632;2023-01-09T03:26:54;9.40;99.90
15413;DHT22;7805;49.554;7.632;2023-01-09T03:29:20;9.40;99.90
15413;DHT22;7805;49.554;7.632;2023-01-09T03:31:46;9.30;99.90
15413;DHT22;7805;49.554;7.632;2023-01-09T03:34:11;9.30;99.90
15413;DHT22;7805;49.554;7.632;2023-01-09T03:36:37;9.20;99.90
15413;DHT22;7805;49.554;7.632;2023-01-09T03:39:02;9.10;99.90
15413;DHT22;7805;49.554;7.632;2023-01-09T03:41:28;9.20;99.90
15413;DHT22;7805;49.554;7.632;2023-01-09T03:43:53;9.10;99.90
15413;DHT22;7805;49.554;7.632;2023-01-09T03:46:19;9.10;99.90
15413;DHT22;7805;49.554;7.632;2023-01-09T03:48:45;9.10;99.90
15413;DHT22;7805;49.554;7.632;2023-01-09T03:51:10;9.20;99.90
15413;DHT22;7805;49.554;7.632;2023-01-09T03:53:36;9.20;99.90
15413;DHT22;7805;49.554;7.632;2023-01-09T03:56:01;9.10;99.90
15413;DHT22;7805;49.554;7.632;2023-01-09T03:58:27;9.10;99.90
15413;DHT22;7805;49.554;7.632;2023-01-09T04:00:58;9.10;99.90
15413;DHT22;7805;49.554;7.632;2023-01-09T04:03:24;9.00;99.90
15413;DHT22;7805;49.554;7.632;2023-01-09T04:05:49;9.00;99.90
15413;DHT22;7805;49.554;7.632;2023-01-09T04:08:15;9.00;99.90
15413;DHT22;7805;49.554;7.632;2023-01-09T04:10:45;8.90;99.90
15413;DHT22;7805;49.554;7.632;2023-01-09T04:13:11;8.90;99.90
15413;DHT22;7805;49.554;7.632;2023-01-09T04:15:37;8.90;99.90
15413;DHT22;7805;49.554;7.632;2023-01-09T04:18:03;8.90;99.90
15413;DHT22;7805;49.554;7.632;2023-01-09T04:20:29;8.70;99.90
15413;DHT22;7805;49.554;7.632;2023-01-09T04:22:54;8.80;99.90
15413;DHT22;7805;49.554;7.632;2023-01-09T04:25:20;8.80;99.90
15413;DHT22;7805;49.554;7.632;2023-01-09T04:27:47;8.70;99.90
15413;DHT22;7805;49.554;7.632;2023-01-09T04:30:13;8.70;99.90
15413;DHT22;7805;49.554;7.632;2023-01-09T04:32:38;8.60;99.90
15413;DHT22;7805;49.554;7.632;2023-01-09T04:35:05;8.70;99.90
15413;DHT22;7805;49.554;7.632;2023-01-09T04:37:30;8.70;99.90
15413;DHT22;7805;49.554;7.632;2023-01-09T04:39:56;8.70;99.90
15413;DHT22;7805;49.554;7.632;2023-01-09T04:42:22;9.00;99.90
15413;DHT22;7805;49.554;7.632;2023-01-09T04:44:48;8.70;99.90
15413;DHT22;7805;49.554;7.632;2023-01-09T04:47:18;8.60;99.90
15413;DHT22;7805;49.554;7.632;2023-01-09T04:49:43;8.60;99.90
15413;DHT22;7805;49.554;7.632;2023-01-09T04:52:09;8.50;99.90
15413;DHT22;7805;49.554;7.632;2023-01-09T04:54:35;10.40;99.90
15413;DHT22;7805;49.554;7.632;2023-01-09T04:57:00;8.40;99.90
15413;DHT22;7805;49.554;7.632;2023-01-09T04:59:26;8.30;99.90
15413;DHT22;7805;49.554;7.632;2023-01-09T05:01:51;8.30;99.90
15413;DHT22;7805;49.554;7.632;2023-01-09T05:04:19;8.20;99.90
15413;DHT22;7805;49.554;7.632;2023-01-09T05:06:44;8.10;99.90
15413;DHT22;7805;49.554;7.632;2023-01-09T05:09:10;8.10;99.90
15413;DHT22;7805;49.554;7.632;2023-01-09T05:11:35;8.10;99.90
15413;DHT22;7805;49.554;7.632;2023-01-09T05:14:01;8.10;99.90
15413;DHT22;7805;49.554;7.632;2023-01-09T05:16:26;8.00;99.90
15413;DHT22;7805;49.554;7.632;2023-01-09T05:18:52;8.10;99.90
15413;DHT22;7805;49.554;7.632;2023-01-09T05:21:22;8.10;99.90
15413;DHT22;7805;49.554;7.632;2023-01-09T05:23:47;8.10;99.90
15413;DHT22;7805;49.554;7.632;2023-01-09T05:26:13;8.20;99.90
15413;DHT22;7805;49.554;7.632;2023-01-09T05:28:38;8.20;99.90
15413;DHT22;7805;49.554;7.632;2023-01-09T05:31:04;8.20;99.90
15413;DHT22;7805;49.554;7.632;2023-01-09T05:33:30;8.30;99.90
15413;DHT22;7805;49.554;7.632;2023-01-09T05:35:55;8.30;99.90
15413;DHT22;7805;49.554;7.632;2023-01-09T05:38:21;8.30;99.90
15413;DHT22;7805;49.554;7.632;2023-01-09T05:40:46;8.20;99.90
15413;DHT22;7805;49.554;7.632;2023-01-09T05:43:12;8.10;99.90
15413;DHT22;7805;49.554;7.632;2023-01-09T05:45:38;8.10;99.90
15413;DHT22;7805;49.554;7.632;2023-01-09T05:48:04;8.10;99.90
15413;DHT22;7805;49.554;7.632;2023-01-09T05:50:30;8.10;99.90
15413;DHT22;7805;49.554;7.632;2023-01-09T05:52:55;8.00;99.90
15413;DHT22;7805;49.554;7.632;2023-01-09T05:55:21;8.10;99.90
15413;DHT22;7805;49.554;7.632;2023-01-09T05:57:46;8.10;99.90
15413;DHT22;7805;49.554;7.632;2023-01-09T06:00:12;8.10;99.90
15413;DHT22;7805;49.554;7.632;2023-01-09T06:02:38;8.10;99.90
15413;DHT22;7805;49.554;7.632;2023-01-09T06:05:04;8.10;99.90
15413;DHT22;7805;49.554;7.632;2023-01-09T06:07:29;8.20;99.90
15413;DHT22;7805;49.554;7.632;2023-01-09T06:09:55;8.20;99.90
15413;DHT22;7805;49.554;7.632;2023-01-09T06:12:21;8.10;99.90
15413;DHT22;7805;49.554;7.632;2023-01-09T06:14:46;8.10;99.90
15413;DHT22;7805;49.554;7.632;2023-01-09T06:17:12;8.00;99.90
15413;DHT22;7805;49.554;7.632;2023-01-09T06:19:38;8.00;99.90
15413;DHT22;7805;49.554;7.632;2023-01-09T06:22:03;8.00;99.90
15413;DHT22;7805;49.554;7.632;2023-01-09T06:24:29;8.10;99.90
15413;DHT22;7805;49.554;7.632;2023-01-09T06:26:54;8.00;99.90
15413;DHT22;7805;49.554;7.632;2023-01-09T06:29:20;7.90;99.90
15413;DHT22;7805;49.554;7.632;2023-01-09T06:31:45;7.90;99.90
15413;DHT22;7805;49.554;7.632;2023-01-09T06:34:11;7.90;99.90
15413;DHT22;7805;49.554;7.632;2023-01-09T06:36:37;7.80;99.90
15413;DHT22;7805;49.554;7.632;2023-01-09T06:39:02;7.80;99.90
15413;DHT22;7805;49.554;7.632;2023-01-09T06:41:28;7.90;99.90
15413;DHT22;7805;49.554;7.632;2023-01-09T06:43:53;7.90;99.90
15413;DHT22;7805;49.554;7.632;2023-01-09T06:46:19;7.90;99.90
15413;DHT22;7805;49.554;7.632;2023-01-09T06:48:44;7.90;99.90
15413;DHT22;7805;49.554;7.632;2023-01-09T06:51:10;7.90;99.90
15413;DHT22;7805;49.554;7.632;2023-01-09T06:53:36;7.80;99.90
15413;DHT22;7805;49.554;7.632;2023-01-09T06:56:01;7.80;99.90
15413;DHT22;7805;49.554;7.632;2023-01-09T06:58:27;7.80;99.90
15413;DHT22;7805;49.554;7.632;2023-01-09T07:00:53;7.80;99.90
15413;DHT22;7805;49.554;7.632;2023-01-09T07:03:19;7.80;99.90
15413;DHT22;7805;49.554;7.632;2023-01-09T07:05:47;7.80;99.90
15413;DHT22;7805;49.554;7.632;2023-01-09T07:08:13;7.90;99.90
15413;DHT22;7805;49.554;7.632;2023-01-09T07:10:42;7.80;99.90
15413;DHT22;7805;49.554;7.632;2023-01-09T07:13:08;7.80;99.90
15413;DHT22;7805;49.554;7.632;2023-01-09T07:15:33;7.80;99.90
15413;DHT22;7805;49.554;7.632;2023-01-09T07:17:59;7.80;99.90
15413;DHT22;7805;49.554;7.632;2023-01-09T07:20:25;7.80;99.90
15413;DHT22;7805;49.554;7.632;2023-01-09T07:22:50;7.80;99.90
15413;DHT22;7805;49.554;7.632;2023-01-09T07:25:16;7.80;99.90
15413;DHT22;7805;49.554;7.632;2023-01-09T07:27:41;7.90;99.90
15413;DHT22;7805;49.554;7.632;2023-01-09T07:30:08;7.90;99.90
15413;DHT22;7805;49.554;7.632;2023-01-09T07:32:34;7.90;99.90
15413;DHT22;7805;49.554;7.632;2023-01-09T07:34:59;7.90;99.90
15413;DHT22;7805;49.554;7.632;2023-01-09T07:37:25;7.90;99.90
15413;DHT22;7805;49.554;7.632;2023-01-09T07:39:51;7.90;99.90
15413;DHT22;7805;49.554;7.632;2023-01-09T07:42:16;7.90;99.90
15413;DHT22;7805;49.554;7.632;2023-01-09T07:44:42;7.90;99.90
15413;DHT22;7805;49.554;7.632;2023-01-09T07:47:07;7.90;99.90
15413;DHT22;7805;49.554;7.632;2023-01-09T07:49:33;7.80;99.90
15413;DHT22;7805;49.554;7.632;2023-01-09T07:51:59;7.80;99.90
15413;DHT22;7805;49.554;7.632;2023-01-09T07:54:24;7.80;99.90
15413;DHT22;7805;49.554;7.632;2023-01-09T07:56:50;7.80;99.90
15413;DHT22;7805;49.554;7.632;2023-01-09T07:59:15;7.90;99.90
15413;DHT22;7805;49.554;7.632;2023-01-09T08:01:41;7.90;99.90
15413;DHT22;7805;49.554;7.632;2023-01-09T08:04:07;7.90;99.90
15413;DHT22;7805;49.554;7.632;2023-01-09T08:06:32;7.90;99.90
15413;DHT22;7805;49.554;7.632;2023-01-09T08:08:58;7.90;99.90
15413;DHT22;7805;49.554;7.632;2023-01-09T08:11:24;8.00;99.90
15413;DHT22;7805;49.554;7.632;2023-01-09T08:13:50;8.10;99.90
15413;DHT22;7805;49.554;7.632;2023-01-09T08:16:16;8.00;99.90
15413;DHT22;7805;49.554;7.632;2023-01-09T08:18:42;8.10;99.90
15413;DHT22;7805;49.554;7.632;2023-01-09T08:21:07;8.00;99.90
15413;DHT22;7805;49.554;7.632;2023-01-09T08:23:35;8.10;99.90
15413;DHT22;7805;49.554;7.632;2023-01-09T08:26:01;8.10;99.90
15413;DHT22;7805;49.554;7.632;2023-01-09T08:28:26;8.10;99.90
15413;DHT22;7805;49.554;7.632;2023-01-09T08:30:52;8.10;99.90
15413;DHT22;7805;49.554;7.632;2023-01-09T08:33:17;8.10;99.90
15413;DHT22;7805;49.554;7.632;2023-01-09T08:35:43;8.20;99.90
15413;DHT22;7805;49.554;7.632;2023-01-09T08:38:09;8.20;99.90
15413;DHT22;7805;49.554;7.632;2023-01-09T08:40:35;8.20;99.90
15413;DHT22;7805;49.554;7.632;2023-01-09T08:43:01;8.20;99.90
15413;DHT22;7805;49.554;7.632;2023-01-09T08:45:45;8.20;99.90
15413;DHT22;7805;49.554;7.632;2023-01-09T08:48:30;8.20;99.90
15413;DHT22;7805;49.554;7.632;2023-01-09T08:50:55;8.20;99.90
15413;DHT22;7805;49.554;7.632;2023-01-09T08:53:21;8.20;99.90
15413;DHT22;7805;49.554;7.632;2023-01-09T08:55:46;8.20;99.90
15413;DHT22;7805;49.554;7.632;2023-01-09T08:58:12;8.30;99.90
15413;DHT22;7805;49.554;7.632;2023-01-09T09:00:38;8.30;99.90
15413;DHT22;7805;49.554;7.632;2023-01-09T09:03:03;8.30;99.90
15413;DHT22;7805;49.554;7.632;2023-01-09T09:05:30;8.30;99.90
15413;DHT22;7805;49.554;7.632;2023-01-09T09:07:57;8.40;99.90
15413;DHT22;7805;49.554;7.632;2023-01-09T09:10:25;8.40;99.90
15413;DHT22;7805;49.554;7.632;2023-01-09T09:12:53;8.40;99.90
15413;DHT22;7805;49.554;7.632;2023-01-09T09:15:19;8.40;99.90
15413;DHT22;7805;49.554;7.632;2023-01-09T09:17:50;8.40;99.90
15413;DHT22;7805;49.554;7.632;2023-01-09T09:20:17;8.40;99.90
15413;DHT22;7805;49.554;7.632;2023-01-09T09:22:45;8.30;99.90
15413;DHT22;7805;49.554;7.632;2023-01-09T09:25:11;8.30;99.90
15413;DHT22;7805;49.554;7.632;2023-01-09T09:27:36;8.40;99.90
15413;DHT22;7805;49.554;7.632;2023-01-09T09:30:02;8.40;99.90
15413;DHT22;7805;49.554;7.632;2023-01-09T09:32:30;8.40;99.90
15413;DHT22;7805;49.554;7.632;2023-01-09T09:34:56;8.50;99.90
15413;DHT22;7805;49.554;7.632;2023-01-09T09:37:21;8.40;99.90
15413;DHT22;7805;49.554;7.632;2023-01-09T09:39:47;8.40;99.90
15413;DHT22;7805;49.554;7.632;2023-01-09T09:47:52;8.30;99.90
15413;DHT22;7805;49.554;7.632;2023-01-09T09:53:28;8.40;99.90
15413;DHT22;7805;49.554;7.632;2023-01-09T09:55:56;8.50;99.90
15413;DHT22;7805;49.554;7.632;2023-01-09T09:58:37;8.50;99.90
15413;DHT22;7805;49.554;7.632;2023-01-09T10:01:05;8.60;99.90
15413;DHT22;7805;49.554;7.632;2023-01-09T10:03:44;8.60;99.90
15413;DHT22;7805;49.554;7.632;2023-01-09T10:06:16;8.50;99.90
15413;DHT22;7805;49.554;7.632;2023-01-09T10:08:54;8.60;99.90
15413;DHT22;7805;49.554;7.632;2023-01-09T10:11:29;8.70;99.90
15413;DHT22;7805;49.554;7.632;2023-01-09T10:13:56;8.70;99.90
15413;DHT22;7805;49.554;7.632;2023-01-09T10:38:43;8.80;99.90
15413;DHT22;7805;49.554;7.632;2023-01-09T10:41:13;8.80;99.90
15413;DHT22;7805;49.554;7.632;2023-01-09T10:43:49;8.80;99.90
15413;DHT22;7805;49.554;7.632;2023-01-09T10:46:25;8.80;99.90
15413;DHT22;7805;49.554;7.632;2023-01-09T10:49:00;8.80;99.90
15413;DHT22;7805;49.554;7.632;2023-01-09T10:51:48;8.80;99.90
15413;DHT22;7805;49.554;7.632;2023-01-09T10:54:20;8.90;99.90
15413;DHT22;7805;49.554;7.632;2023-01-09T10:59:19;8.90;99.90
15413;DHT22;7805;49.554;7.632;2023-01-09T11:01:45;8.90;99.90
15413;DHT22;7805;49.554;7.632;2023-01-09T11:04:30;8.90;99.90
15413;DHT22;7805;49.554;7.632;2023-01-09T11:07:17;9.00;99.90
15413;DHT22;7805;49.554;7.632;2023-01-09T11:10:06;9.00;99.90
15413;DHT22;7805;49.554;7.632;2023-01-09T11:12:34;8.90;99.90
15413;DHT22;7805;49.554;7.632;2023-01-09T11:17:41;8.90;99.90
15413;DHT22;7805;49.554;7.632;2023-01-09T11:25:18;8.80;99.90
15413;DHT22;7805;49.554;7.632;2023-01-09T11:30:35;8.70;99.90
15413;DHT22;7805;49.554;7.632;2023-01-09T11:33:17;8.60;99.90
15413;DHT22;7805;49.554;7.632;2023-01-09T11:38:31;8.70;99.90
15413;DHT22;7805;49.554;7.632;2023-01-09T11:41:02;8.70;99.90
15413;DHT22;7805;49.554;7.632;2023-01-09T11:43:36;8.70;99.90
15413;DHT22;7805;49.554;7.632;2023-01-09T11:46:05;8.70;99.90
15413;DHT22;7805;49.554;7.632;2023-01-09T11:48:53;8.70;99.90
15413;DHT22;7805;49.554;7.632;2023-01-09T11:51:41;8.70;99.90
15413;DHT22;7805;49.554;7.632;2023-01-09T11:54:25;8.70;99.90
15413;DHT22;7805;49.554;7.632;2023-01-09T11:56:52;8.70;99.90
15413;DHT22;7805;49.554;7.632;2023-01-09T11:59:24;8.70;99.90
15413;DHT22;7805;49.554;7.632;2023-01-09T12:02:20;8.70;99.90
15413;DHT22;7805;49.554;7.632;2023-01-09T12:05:00;8.80;99.90
15413;DHT22;7805;49.554;7.632;2023-01-09T12:07:54;8.90;99.90
15413;DHT22;7805;49.554;7.632;2023-01-09T12:18:56;8.90;99.90
15413;DHT22;7805;49.554;7.632;2023-01-09T12:21:39;8.80;99.90
15413;DHT22;7805;49.554;7.632;2023-01-09T12:40:33;8.80;99.90
15413;DHT22;7805;49.554;7.632;2023-01-09T12:46:14;8.80;99.90
15413;DHT22;7805;49.554;7.632;2023-01-09T12:54:32;9.00;99.90
15413;DHT22;7805;49.554;7.632;2023-01-09T12:57:27;9.00;99.90
15413;DHT22;7805;49.554;7.632;2023-01-09T13:00:03;9.00;99.90
15413;DHT22;7805;49.554;7.632;2023-01-09T13:02:57;9.10;99.90
15413;DHT22;7805;49.554;7.632;2023-01-09T13:05:30;9.20;99.90
15413;DHT22;7805;49.554;7.632;2023-01-09T13:10:48;9.70;99.90
15413;DHT22;7805;49.554;7.632;2023-01-09T13:13:24;10.90;99.90
15413;DHT22;7805;49.554;7.632;2023-01-09T13:15:54;9.50;99.90
15413;DHT22;7805;49.554;7.632;2023-01-09T13:18:51;11.60;99.90
15413;DHT22;7805;49.554;7.632;2023-01-09T13:21:20;9.40;99.90
15413;DHT22;7805;49.554;7.632;2023-01-09T13:23:50;9.20;99.90
15413;DHT22;7805;49.554;7.632;2023-01-09T13:26:24;9.20;99.90
15413;DHT22;7805;49.554;7.632;2023-01-09T13:28:57;9.10;99.90
15413;DHT22;7805;49.554;7.632;2023-01-09T13:34:18;9.20;99.90
15413;DHT22;7805;49.554;7.632;2023-01-09T13:36:47;9.10;99.90
15413;DHT22;7805;49.554;7.632;2023-01-09T13:41:51;9.20;99.90
15413;DHT22;7805;49.554;7.632;2023-01-09T13:44:37;9.10;99.90
15413;DHT22;7805;49.554;7.632;2023-01-09T13:47:02;9.10;99.90
15413;DHT22;7805;49.554;7.632;2023-01-09T13:59:47;9.30;99.90
15413;DHT22;7805;49.554;7.632;2023-01-09T14:05:17;9.50;99.90
15413;DHT22;7805;49.554;7.632;2023-01-09T14:08:03;9.70;99.90
15413;DHT22;7805;49.554;7.632;2023-01-09T14:10:37;9.70;99.90
15413;DHT22;7805;49.554;7.632;2023-01-09T14:13:12;9.70;99.90
15413;DHT22;7805;49.554;7.632;2023-01-09T14:15:41;9.50;99.90
15413;DHT22;7805;49.554;7.632;2023-01-09T14:18:24;9.50;99.90
15413;DHT22;7805;49.554;7.632;2023-01-09T14:21:00;9.40;99.90
15413;DHT22;7805;49.554;7.632;2023-01-09T14:23:33;9.30;99.90
15413;DHT22;7805;49.554;7.632;2023-01-09T14:26:01;9.20;99.90
15413;DHT22;7805;49.554;7.632;2023-01-09T14:28:28;9.30;99.90
15413;DHT22;7805;49.554;7.632;2023-01-09T14:33:24;9.40;99.90
15413;DHT22;7805;49.554;7.632;2023-01-09T14:44:02;11.40;99.90
15413;DHT22;7805;49.554;7.632;2023-01-09T14:46:37;11.60;99.90
15413;DHT22;7805;49.554;7.632;2023-01-09T14:49:05;11.50;99.90
15413;DHT22;7805;49.554;7.632;2023-01-09T14:51:34;11.60;99.90
15413;DHT22;7805;49.554;7.632;2023-01-09T14:54:14;11.30;99.90
15413;DHT22;7805;49.554;7.632;2023-01-09T14:56:45;11.10;99.90
15413;DHT22;7805;49.554;7.632;2023-01-09T14:59:15;10.90;99.90
15413;DHT22;7805;49.554;7.632;2023-01-09T15:01:43;10.70;99.90
15413;DHT22;7805;49.554;7.632;2023-01-09T15:04:25;10.20;99.90
15413;DHT22;7805;49.554;7.632;2023-01-09T15:06:51;8.50;99.90
15413;DHT22;7805;49.554;7.632;2023-01-09T15:09:25;9.60;99.90
15413;DHT22;7805;49.554;7.632;2023-01-09T15:11:54;9.40;99.90
15413;DHT22;7805;49.554;7.632;2023-01-09T15:16:53;9.00;99.90
15413;DHT22;7805;49.554;7.632;2023-01-09T15:19:18;8.80;99.90
15413;DHT22;7805;49.554;7.632;2023-01-09T15:22:02;8.70;99.90
15413;DHT22;7805;49.554;7.632;2023-01-09T15:24:30;8.70;99.90
15413;DHT22;7805;49.554;7.632;2023-01-09T15:27:00;8.70;99.90
15413;DHT22;7805;49.554;7.632;2023-01-09T15:29:26;8.70;99.90
15413;DHT22;7805;49.554;7.632;2023-01-09T15:32:34;8.80;99.90
15413;DHT22;7805;49.554;7.632;2023-01-09T15:35:00;8.80;99.90
15413;DHT22;7805;49.554;7.632;2023-01-09T15:39:51;8.70;99.90
15413;DHT22;7805;49.554;7.632;2023-01-09T15:42:23;8.70;99.90
15413;DHT22;7805;49.554;7.632;2023-01-09T15:50:43;8.50;99.90
15413;DHT22;7805;49.554;7.632;2023-01-09T15:53:28;8.40;99.90
15413;DHT22;7805;49.554;7.632;2023-01-09T15:56:24;8.40;99.90
15413;DHT22;7805;49.554;7.632;2023-01-09T15:58:51;8.40;99.90
15413;DHT22;7805;49.554;7.632;2023-01-09T16:01:46;8.20;99.90
15413;DHT22;7805;49.554;7.632;2023-01-09T16:04:32;8.20;99.90
15413;DHT22;7805;49.554;7.632;2023-01-09T16:07:12;8.10;99.90
15413;DHT22;7805;49.554;7.632;2023-01-09T16:09:43;8.10;99.90
15413;DHT22;7805;49.554;7.632;2023-01-09T16:12:26;8.20;99.90
15413;DHT22;7805;49.554;7.632;2023-01-09T16:14:57;8.20;99.90
15413;DHT22;7805;49.554;7.632;2023-01-09T16:17:23;8.20;99.90
15413;DHT22;7805;49.554;7.632;2023-01-09T16:19:56;8.20;99.90
15413;DHT22;7805;49.554;7.632;2023-01-09T16:22:32;8.20;99.90
15413;DHT22;7805;49.554;7.632;2023-01-09T16:25:17;8.20;99.90
15413;DHT22;7805;49.554;7.632;2023-01-09T16:28:14;8.00;99.90
15413;DHT22;7805;49.554;7.632;2023-01-09T16:30:59;8.00;99.90
15413;DHT22;7805;49.554;7.632;2023-01-09T16:33:27;7.90;99.90
15413;DHT22;7805;49.554;7.632;2023-01-09T16:35:54;7.80;99.90
15413;DHT22;7805;49.554;7.632;2023-01-09T16:38:20;7.80;99.90
15413;DHT22;7805;49.554;7.632;2023-01-09T16:41:04;7.90;99.90
15413;DHT22;7805;49.554;7.632;2023-01-09T16:43:50;7.90;99.90
15413;DHT22;7805;49.554;7.632;2023-01-09T16:46:18;7.90;99.90
15413;DHT22;7805;49.554;7.632;2023-01-09T16:48:44;7.90;99.90
15413;DHT22;7805;49.554;7.632;2023-01-09T16:51:19;7.90;99.90
15413;DHT22;7805;49.554;7.632;2023-01-09T16:53:46;7.90;99.90
15413;DHT22;7805;49.554;7.632;2023-01-09T16:56:20;7.90;99.90
15413;DHT22;7805;49.554;7.632;2023-01-09T16:58:47;7.80;99.90
15413;DHT22;7805;49.554;7.632;2023-01-09T17:01:13;7.60;99.90
15413;DHT22;7805;49.554;7.632;2023-01-09T17:03:40;7.60;99.90
15413;DHT22;7805;49.554;7.632;2023-01-09T17:06:12;7.50;99.90
15413;DHT22;7805;49.554;7.632;2023-01-09T17:08:39;7.60;99.90
15413;DHT22;7805;49.554;7.632;2023-01-09T17:11:05;7.60;99.90
15413;DHT22;7805;49.554;7.632;2023-01-09T17:13:30;7.50;99.90
15413;DHT22;7805;49.554;7.632;2023-01-09T17:15:57;7.60;99.90
15413;DHT22;7805;49.554;7.632;2023-01-09T17:18:25;7.60;99.90
15413;DHT22;7805;49.554;7.632;2023-01-09T17:20:53;7.60;99.90
15413;DHT22;7805;49.554;7.632;2023-01-09T17:23:21;7.60;99.90
15413;DHT22;7805;49.554;7.632;2023-01-09T17:25:52;7.70;99.90
15413;DHT22;7805;49.554;7.632;2023-01-09T17:28:37;7.70;99.90
15413;DHT22;7805;49.554;7.632;2023-01-09T17:31:06;7.70;99.90
15413;DHT22;7805;49.554;7.632;2023-01-09T17:33:34;7.80;99.90
15413;DHT22;7805;49.554;7.632;2023-01-09T17:38:41;7.80;99.90
15413;DHT22;7805;49.554;7.632;2023-01-09T17:41:10;7.80;99.90
15413;DHT22;7805;49.554;7.632;2023-01-09T17:43:36;7.70;99.90
15413;DHT22;7805;49.554;7.632;2023-01-09T17:46:02;7.60;99.90
15413;DHT22;7805;49.554;7.632;2023-01-09T17:48:27;7.60;99.90
15413;DHT22;7805;49.554;7.632;2023-01-09T17:50:53;7.50;99.90
15413;DHT22;7805;49.554;7.632;2023-01-09T17:53:18;7.60;99.90
15413;DHT22;7805;49.554;7.632;2023-01-09T17:55:45;7.70;99.90
15413;DHT22;7805;49.554;7.632;2023-01-09T17:58:26;7.60;99.90
15413;DHT22;7805;49.554;7.632;2023-01-09T18:00:53;7.70;99.90
15413;DHT22;7805;49.554;7.632;2023-01-09T18:03:18;7.60;99.90
15413;DHT22;7805;49.554;7.632;2023-01-09T18:05:47;7.60;99.90
15413;DHT22;7805;49.554;7.632;2023-01-09T18:08:13;7.60;99.90
15413;DHT22;7805;49.554;7.632;2023-01-09T18:10:39;7.60;99.90
15413;DHT22;7805;49.554;7.632;2023-01-09T18:13:05;7.60;99.90
15413;DHT22;7805;49.554;7.632;2023-01-09T18:15:31;7.60;99.90
15413;DHT22;7805;49.554;7.632;2023-01-09T18:17:57;7.70;99.90
15413;DHT22;7805;49.554;7.632;2023-01-09T18:20:23;7.50;99.90
15413;DHT22;7805;49.554;7.632;2023-01-09T18:22:50;7.50;99.90
15413;DHT22;7805;49.554;7.632;2023-01-09T18:25:16;7.60;99.90
15413;DHT22;7805;49.554;7.632;2023-01-09T18:27:42;7.60;99.90
15413;DHT22;7805;49.554;7.632;2023-01-09T18:30:08;7.60;99.90
15413;DHT22;7805;49.554;7.632;2023-01-09T18:32:34;7.60;99.90
15413;DHT22;7805;49.554;7.632;2023-01-09T18:35:00;7.50;99.90
15413;DHT22;7805;49.554;7.632;2023-01-09T18:37:26;7.50;99.90
15413;DHT22;7805;49.554;7.632;2023-01-09T18:39:51;7.50;99.90
15413;DHT22;7805;49.554;7.632;2023-01-09T18:42:17;7.50;99.90
15413;DHT22;7805;49.554;7.632;2023-01-09T18:44:42;7.60;99.90
15413;DHT22;7805;49.554;7.632;2023-01-09T18:47:08;7.60;99.90
15413;DHT22;7805;49.554;7.632;2023-01-09T18:49:33;7.60;99.90
15413;DHT22;7805;49.554;7.632;2023-01-09T18:51:59;7.70;99.90
15413;DHT22;7805;49.554;7.632;2023-01-09T18:54:25;7.70;99.90